Time;durP1;ratioP1;P1;durP2;ratioP2;P2;SDS_P1;SDS_P2;PMS_P1;PMS_P2;Temp;Humidity;BMP_temperature;BMP_pressure;BME280_temperature;BME280_humidity;BME280_pressure;Samples;Min_cycle;Max_cycle;Signal;HPM_P1;HPM_P2
2022/01/13 00:01:45;;;;;;;32.33;15.82;;;3.90;99.90;;;;;;5117611;28;20172;-57
2022/01/13 00:04:13;;;;;;;57.47;18.33;;;4.00;99.90;;;;;;5117438;28;20716;-57
2022/01/13 00:06:40;;;;;;;32.03;17.42;;;4.10;99.90;;;;;;5115971;28;20175;-57
2022/01/13 00:09:06;;;;;;;41.90;18.67;;;4.10;99.90;;;;;;5117378;28;20307;-58
2022/01/13 00:11:32;;;;;;;41.70;18.67;;;4.20;99.90;;;;;;5117251;28;20181;-57
2022/01/13 00:19:56;;;;;;;25.65;15.68;;;3.90;99.90;;;;;;5117208;28;20220;-57
2022/01/13 00:21:59;;;;;;;35.57;15.40;;;3.80;99.90;;;;;;5109537;28;20234;-57
2022/01/13 00:24:24;;;;;;;42.63;17.98;;;3.80;99.90;;;;;;5117065;28;20180;-57
2022/01/13 00:26:52;;;;;;;82.88;19.88;;;3.90;99.90;;;;;;5116930;28;20216;-58
2022/01/13 00:29:24;;;;;;;44.85;16.77;;;3.80;99.90;;;;;;5117269;28;20179;-57
2022/01/13 00:31:50;;;;;;;35.78;16.08;;;3.70;99.90;;;;;;5116802;28;20232;-58
2022/01/13 00:34:15;;;;;;;37.72;16.48;;;3.80;99.90;;;;;;5116912;28;20180;-57
2022/01/13 00:36:41;;;;;;;59.88;18.83;;;3.90;99.90;;;;;;5116787;28;20702;-57
2022/01/13 00:39:10;;;;;;;50.00;19.17;;;3.90;99.90;;;;;;5116773;28;20183;-57
2022/01/13 00:41:35;;;;;;;39.10;17.17;;;4.00;99.90;;;;;;5116674;28;20180;-57
2022/01/13 00:44:03;;;;;;;51.92;17.40;;;4.00;99.90;;;;;;5116982;28;20190;-58
2022/01/13 00:46:40;;;;;;;108.97;22.10;;;3.90;99.90;;;;;;5116696;28;20180;-58
2022/01/13 00:49:06;;;;;;;56.08;16.75;;;4.00;99.90;;;;;;5116689;28;20168;-58
2022/01/13 00:51:32;;;;;;;41.67;16.47;;;4.00;99.90;;;;;;5114873;28;20176;-57
2022/01/13 00:54:03;;;;;;;32.37;17.10;;;3.80;99.90;;;;;;5116384;28;20661;-58
2022/01/13 00:56:30;;;;;;;57.57;18.83;;;3.80;99.90;;;;;;5116483;28;20530;-57
2022/01/13 00:58:56;;;;;;;57.50;18.60;;;3.90;99.90;;;;;;5116396;28;20263;-57
2022/01/13 01:01:22;;;;;;;37.67;18.53;;;3.90;99.90;;;;;;5116356;28;20446;-57
2022/01/13 01:03:47;;;;;;;82.37;20.63;;;3.90;99.90;;;;;;5116273;28;20183;-57
2022/01/13 01:06:13;;;;;;;59.17;20.43;;;3.80;99.90;;;;;;5114783;28;20653;-58
2022/01/13 01:08:39;;;;;;;47.23;19.20;;;3.60;99.90;;;;;;5116097;28;20280;-58
2022/01/13 01:11:06;;;;;;;45.10;19.47;;;3.70;99.90;;;;;;5114924;28;20271;-58
2022/01/13 01:13:34;;;;;;;53.55;19.83;;;3.70;99.90;;;;;;5116402;28;20187;-58
2022/01/13 01:16:07;;;;;;;40.78;18.63;;;3.80;99.90;;;;;;5119401;28;20200;-57
2022/01/13 01:29:06;;;;;;;47.13;19.60;;;3.70;99.90;;;;;;5116049;28;20183;-57
2022/01/13 01:31:34;;;;;;;50.40;18.80;;;3.80;99.90;;;;;;5115584;28;20525;-58
2022/01/13 01:34:28;;;;;;;64.97;20.97;;;3.80;99.90;;;;;;5115642;28;20213;-57
2022/01/13 01:36:55;;;;;;;35.42;17.27;;;3.80;99.90;;;;;;5115749;28;20174;-57
2022/01/13 01:39:22;;;;;;;66.93;20.23;;;3.80;99.90;;;;;;5115660;28;20173;-57
2022/01/13 01:41:49;;;;;;;44.17;19.27;;;3.70;99.90;;;;;;5115568;27;20172;-57
2022/01/13 01:44:19;;;;;;;73.18;21.25;;;3.70;99.90;;;;;;5115529;28;20227;-57
2022/01/13 01:46:46;;;;;;;86.00;20.90;;;3.60;99.90;;;;;;5115634;28;20180;-57
2022/01/13 01:49:23;;;;;;;48.00;18.30;;;3.60;99.90;;;;;;5114111;28;20191;-58
2022/01/13 01:51:56;;;;;;;38.80;18.73;;;3.70;99.90;;;;;;5115542;28;20521;-57
2022/01/13 01:54:23;;;;;;;40.40;18.17;;;3.80;99.90;;;;;;5115395;28;20255;-57
2022/01/13 01:56:49;;;;;;;44.42;18.92;;;3.80;99.90;;;;;;5115259;28;20180;-57
2022/01/13 01:59:19;;;;;;;40.78;19.50;;;3.80;99.90;;;;;;5115245;28;20169;-58
2022/01/13 02:01:47;;;;;;;37.13;19.63;;;3.80;99.90;;;;;;5115116;28;20172;-57
2022/01/13 02:04:13;;;;;;;44.35;18.67;;;3.80;99.90;;;;;;5114253;28;20566;-57
2022/01/13 02:06:39;;;;;;;40.35;19.92;;;3.90;99.90;;;;;;5114989;28;20185;-57
2022/01/13 02:09:07;;;;;;;43.73;18.93;;;3.90;99.90;;;;;;5115001;28;20218;-57
2022/01/13 02:11:42;;;;;;;55.78;20.65;;;3.80;99.90;;;;;;5115014;28;20293;-57
2022/01/13 02:14:31;;;;;;;97.77;26.33;;;3.70;99.90;;;;;;5115006;28;20246;-57
2022/01/13 02:17:04;;;;;;;47.70;19.23;;;3.40;99.90;;;;;;5114299;28;20219;-57
2022/01/13 02:19:31;;;;;;;118.73;25.43;;;3.30;99.90;;;;;;5114958;28;20576;-57
2022/01/13 02:21:57;;;;;;;66.53;20.23;;;3.40;99.90;;;;;;5114722;28;20225;-57
2022/01/13 02:24:23;;;;;;;49.13;20.07;;;3.50;99.90;;;;;;5096534;28;20185;-57
2022/01/13 02:26:48;;;;;;;47.00;19.60;;;3.60;99.90;;;;;;5114629;28;20568;-57
2022/01/13 02:29:14;;;;;;;67.97;21.40;;;3.60;99.90;;;;;;5114742;27;20279;-57
2022/01/13 02:31:40;;;;;;;44.03;20.13;;;3.60;99.90;;;;;;5114570;28;20268;-57
2022/01/13 02:34:05;;;;;;;55.17;19.80;;;3.70;99.90;;;;;;5114590;28;20531;-57
2022/01/13 02:36:32;;;;;;;40.03;18.87;;;3.70;99.90;;;;;;5114249;28;20176;-57
2022/01/13 02:39:00;;;;;;;69.07;19.87;;;3.80;99.90;;;;;;5113197;28;20404;-57
2022/01/13 02:41:27;;;;;;;52.10;20.00;;;3.70;99.90;;;;;;5114402;28;20176;-57
2022/01/13 02:43:54;;;;;;;47.80;18.10;;;3.60;99.90;;;;;;5114114;28;20204;-57
2022/01/13 02:49:08;;;;;;;37.27;17.83;;;3.60;99.90;;;;;;5114389;28;20561;-57
2022/01/13 02:51:35;;;;;;;40.92;19.25;;;3.60;99.90;;;;;;5112937;28;20180;-57
2022/01/13 02:54:00;;;;;;;51.97;19.30;;;3.70;99.90;;;;;;5112942;28;20538;-57
2022/01/13 02:56:27;;;;;;;31.83;17.65;;;3.70;99.90;;;;;;5114161;28;20184;-57
2022/01/13 02:58:53;;;;;;;31.93;18.57;;;3.70;99.90;;;;;;5114379;28;20184;-57
2022/01/13 03:01:19;;;;;;;68.13;20.20;;;3.60;99.90;;;;;;5115540;28;20502;-57
2022/01/13 03:03:45;;;;;;;81.70;20.23;;;3.60;99.90;;;;;;5120762;28;20192;-57
2022/01/13 03:06:13;;;;;;;34.53;18.03;;;3.60;99.90;;;;;;5116415;28;20176;-57
2022/01/13 03:08:43;;;;;;;55.33;19.73;;;3.50;99.90;;;;;;5113979;28;20661;-57
2022/01/13 03:11:10;;;;;;;24.97;15.77;;;3.40;99.90;;;;;;5112811;28;20172;-57
2022/01/13 03:13:36;;;;;;;47.67;16.93;;;3.40;99.90;;;;;;5113937;28;20184;-57
2022/01/13 03:16:09;;;;;;;69.60;19.10;;;3.40;99.90;;;;;;5113505;28;20184;-56
2022/01/13 03:18:36;;;;;;;43.33;15.93;;;3.40;99.90;;;;;;5114100;28;20172;-57
2022/01/13 03:21:03;;;;;;;65.37;17.97;;;3.40;99.90;;;;;;5113598;28;20172;-57
2022/01/13 03:23:29;;;;;;;86.33;19.67;;;3.20;99.90;;;;;;5113868;28;20523;-58
2022/01/13 03:25:54;;;;;;;38.27;15.40;;;3.20;99.90;;;;;;5113834;28;20632;-57
2022/01/13 03:28:31;;;;;;;96.23;19.77;;;3.20;99.90;;;;;;5112275;28;20203;-57
2022/01/13 03:31:00;;;;;;;65.07;17.57;;;3.10;99.90;;;;;;5112750;28;20176;-57
2022/01/13 03:33:26;;;;;;;86.17;18.30;;;3.10;99.90;;;;;;5112517;28;20529;-57
2022/01/13 03:35:52;;;;;;;56.63;16.83;;;2.90;99.90;;;;;;5113805;28;20168;-57
2022/01/13 03:38:18;;;;;;;65.53;17.77;;;3.10;99.90;;;;;;5112297;28;20172;-57
2022/01/13 03:40:44;;;;;;;102.43;21.80;;;3.10;99.90;;;;;;5113756;28;20174;-58
2022/01/13 03:43:11;;;;;;;60.37;19.00;;;3.20;99.90;;;;;;5113929;28;20187;-57
2022/01/13 03:45:37;;;;;;;65.57;17.43;;;3.20;99.90;;;;;;5112539;28;20180;-59
2022/01/13 03:48:06;;;;;;;40.07;16.33;;;3.10;99.90;;;;;;5113820;28;20197;-57
2022/01/13 03:50:32;;;;;;;27.07;15.70;;;3.20;99.90;;;;;;5113782;28;20646;-57
2022/01/13 03:53:03;;;;;;;59.87;19.80;;;3.30;99.90;;;;;;5113712;28;20180;-57
2022/01/13 03:55:40;;;;;;;97.13;20.50;;;3.30;99.90;;;;;;5113674;28;20164;-57
2022/01/13 03:58:34;;;;;;;28.53;15.73;;;3.20;99.90;;;;;;5113581;28;20172;-57
2022/01/13 04:01:30;;;;;;;51.60;17.93;;;3.30;99.90;;;;;;5113519;28;20212;-57
2022/01/13 04:03:55;;;;;;;56.93;17.20;;;3.30;99.90;;;;;;5113298;28;20276;-57
2022/01/13 04:06:21;;;;;;;136.00;23.77;;;3.20;99.90;;;;;;5113482;28;20180;-57
2022/01/13 04:08:49;;;;;;;72.13;19.00;;;3.20;99.90;;;;;;5113420;28;20193;-57
2022/01/13 04:11:22;;;;;;;46.03;18.83;;;3.20;99.90;;;;;;5113436;28;20695;-57
2022/01/13 04:14:01;;;;;;;136.00;22.47;;;3.20;99.90;;;;;;5113422;28;20175;-57
2022/01/13 04:16:33;;;;;;;54.00;18.33;;;3.20;99.90;;;;;;5113195;28;20238;-57
2022/01/13 04:19:04;;;;;;;75.77;18.60;;;3.20;99.90;;;;;;5113265;28;20630;-56
2022/01/13 04:21:32;;;;;;;41.03;15.57;;;3.00;99.90;;;;;;5113353;28;20188;-57
2022/01/13 04:23:58;;;;;;;36.50;16.10;;;2.80;99.90;;;;;;5113310;28;20188;-57
2022/01/13 04:26:28;;;;;;;50.20;16.67;;;3.00;99.90;;;;;;5113344;28;20199;-57
2022/01/13 04:29:04;;;;;;;58.17;17.03;;;3.20;99.90;;;;;;5116562;28;20687;-57
2022/01/13 04:31:29;;;;;;;38.30;16.63;;;3.30;99.90;;;;;;5116991;28;20156;-57
2022/01/13 04:33:55;;;;;;;115.33;21.83;;;3.30;99.90;;;;;;5116599;28;20630;-57
2022/01/13 04:36:20;;;;;;;40.97;17.63;;;3.30;99.90;;;;;;5116875;28;20180;-57
2022/01/13 04:38:46;;;;;;;42.53;15.53;;;3.20;99.90;;;;;;5116556;28;20204;-57
2022/01/13 04:41:14;;;;;;;49.90;16.50;;;3.30;99.90;;;;;;5115534;28;20638;-57
2022/01/13 04:43:43;;;;;;;46.30;16.27;;;3.30;99.90;;;;;;5116707;28;20271;-57
2022/01/13 04:46:08;;;;;;;53.10;17.87;;;3.20;99.90;;;;;;5117079;28;20187;-57
2022/01/13 04:48:34;;;;;;;26.70;15.27;;;3.20;99.90;;;;;;5118535;28;20628;-57
2022/01/13 04:50:59;;;;;;;50.50;16.13;;;3.20;99.90;;;;;;5118732;28;20188;-57
2022/01/13 04:53:25;;;;;;;66.90;17.83;;;3.20;99.90;;;;;;5115080;28;20241;-57
2022/01/13 04:55:56;;;;;;;42.17;15.70;;;3.20;99.90;;;;;;5116479;28;20180;-57
2022/01/13 04:58:22;;;;;;;59.75;17.20;;;3.20;99.90;;;;;;5099201;28;20177;-57
2022/01/13 05:00:47;;;;;;;43.60;15.97;;;3.20;99.90;;;;;;5116408;28;20514;-57
2022/01/13 05:03:13;;;;;;;133.97;21.60;;;3.20;99.90;;;;;;5116344;28;20645;-57
2022/01/13 05:05:38;;;;;;;40.33;15.73;;;3.20;99.90;;;;;;5114816;28;20180;-57
2022/01/13 05:08:04;;;;;;;42.33;15.23;;;3.20;99.90;;;;;;5114964;28;20718;-57
2022/01/13 05:10:30;;;;;;;99.50;19.83;;;3.20;99.90;;;;;;5114750;28;20184;-57
2022/01/13 05:12:57;;;;;;;124.47;21.00;;;3.20;99.90;;;;;;5114993;28;20205;-57
2022/01/13 05:15:26;;;;;;;60.10;16.93;;;3.10;99.90;;;;;;5116090;28;20254;-57
2022/01/13 05:18:11;;;;;;;70.27;18.03;;;3.10;99.90;;;;;;5114759;28;20188;-57
2022/01/13 05:20:41;;;;;;;56.83;15.63;;;3.10;99.90;;;;;;5116154;28;20233;-57
2022/01/13 05:23:08;;;;;;;80.37;18.43;;;3.10;99.90;;;;;;5115812;28;20269;-57
2022/01/13 05:25:34;;;;;;;52.17;16.83;;;3.30;99.90;;;;;;5115932;28;20206;-57
2022/01/13 05:28:00;;;;;;;27.37;15.23;;;3.30;99.90;;;;;;5115739;28;20213;-57
2022/01/13 05:30:25;;;;;;;44.97;18.10;;;3.20;99.90;;;;;;5115815;28;20176;-57
2022/01/13 05:32:51;;;;;;;121.87;22.67;;;3.20;99.90;;;;;;5115983;28;20700;-57
2022/01/13 05:35:17;;;;;;;96.00;21.53;;;3.20;99.90;;;;;;5115718;28;20184;-57
2022/01/13 05:37:44;;;;;;;41.73;16.87;;;3.10;99.90;;;;;;5114332;28;20181;-57
2022/01/13 05:40:13;;;;;;;43.63;16.37;;;3.20;99.90;;;;;;5115280;28;20618;-57
2022/01/13 05:42:40;;;;;;;32.87;16.33;;;3.20;99.90;;;;;;5114684;28;20175;-57
2022/01/13 05:45:14;;;;;;;70.30;17.40;;;3.10;99.90;;;;;;5115242;28;20256;-57
2022/01/13 05:47:40;;;;;;;80.73;18.33;;;3.10;99.90;;;;;;5115520;28;20665;-57
2022/01/13 05:50:07;;;;;;;70.37;18.00;;;3.20;99.90;;;;;;5115451;28;20173;-57
2022/01/13 05:52:33;;;;;;;100.47;17.90;;;3.10;99.90;;;;;;5115382;28;20200;-57
2022/01/13 05:54:59;;;;;;;52.83;14.37;;;3.10;99.90;;;;;;5114409;28;20207;-57
2022/01/13 05:57:24;;;;;;;50.70;14.53;;;3.00;99.90;;;;;;5114951;28;20226;-57
2022/01/13 05:59:50;;;;;;;33.73;14.27;;;3.10;99.90;;;;;;5115205;28;20263;-57
2022/01/13 06:02:15;;;;;;;44.60;14.33;;;3.10;99.90;;;;;;5115128;28;20172;-57
2022/01/13 06:04:41;;;;;;;115.47;18.63;;;3.10;99.90;;;;;;5113458;28;20183;-53
2022/01/13 06:07:07;;;;;;;57.37;15.37;;;3.00;99.90;;;;;;5112655;28;20218;-55
2022/01/13 06:09:32;;;;;;;29.83;12.47;;;3.10;99.90;;;;;;5114969;27;20179;-56
2022/01/13 06:12:02;;;;;;;32.33;14.30;;;2.90;99.90;;;;;;5115253;28;20173;-55
2022/01/13 06:14:27;;;;;;;51.57;14.67;;;3.00;99.90;;;;;;5113740;28;20187;-55
2022/01/13 06:16:53;;;;;;;48.20;15.07;;;3.00;99.90;;;;;;5114805;28;20196;-55
2022/01/13 06:19:19;;;;;;;105.17;18.93;;;3.00;99.90;;;;;;5113505;28;20233;-55
2022/01/13 06:21:45;;;;;;;59.67;16.17;;;3.00;99.90;;;;;;5114813;28;20180;-55
2022/01/13 06:24:11;;;;;;;36.23;15.13;;;3.00;99.90;;;;;;5113445;28;20186;-54
2022/01/13 06:26:36;;;;;;;110.60;19.27;;;3.00;99.90;;;;;;5109164;27;20248;-55
2022/01/13 06:29:02;;;;;;;43.90;15.30;;;2.90;99.90;;;;;;5114228;28;20220;-55
2022/01/13 06:31:28;;;;;;;25.83;13.60;;;2.90;99.90;;;;;;5114347;28;20176;-55
2022/01/13 06:33:54;;;;;;;28.60;14.10;;;2.80;99.90;;;;;;5113470;28;20192;-56
2022/01/13 06:36:20;;;;;;;40.63;15.17;;;2.90;99.90;;;;;;5114607;28;20621;-56
2022/01/13 06:38:48;;;;;;;119.80;22.70;;;3.00;99.90;;;;;;5114615;28;20209;-56
2022/01/13 06:41:15;;;;;;;49.13;15.17;;;3.00;99.90;;;;;;5114341;28;20530;-57
2022/01/13 06:43:40;;;;;;;39.97;17.00;;;3.00;99.90;;;;;;5114069;28;20184;-56
2022/01/13 06:46:06;;;;;;;40.37;14.90;;;3.00;99.90;;;;;;5114088;28;20174;-55
2022/01/13 06:48:32;;;;;;;79.47;18.13;;;3.00;99.90;;;;;;5112812;28;20231;-56
2022/01/13 06:50:58;;;;;;;38.00;15.37;;;3.10;99.90;;;;;;5112532;28;20306;-55
2022/01/13 06:53:24;;;;;;;89.00;18.07;;;3.10;99.90;;;;;;5114155;28;20180;-56
2022/01/13 06:55:51;;;;;;;58.33;16.80;;;3.10;99.90;;;;;;5114049;28;20537;-55
2022/01/13 06:58:17;;;;;;;53.13;15.83;;;3.00;99.90;;;;;;5112989;28;20172;-57
2022/01/13 07:00:43;;;;;;;42.03;16.33;;;3.00;99.90;;;;;;5114015;27;20193;-55
2022/01/13 07:03:09;;;;;;;47.67;16.67;;;3.00;99.90;;;;;;5114019;28;20211;-56
2022/01/13 07:05:35;;;;;;;48.67;15.97;;;3.10;99.90;;;;;;5095950;28;20180;-55
2022/01/13 07:08:02;;;;;;;66.87;16.03;;;3.10;99.90;;;;;;5112846;28;20286;-56
2022/01/13 07:10:29;;;;;;;38.50;15.37;;;3.10;99.90;;;;;;5113459;28;20648;-56
2022/01/13 07:12:54;;;;;;;98.17;18.50;;;3.00;99.90;;;;;;5113548;28;20642;-55
2022/01/13 07:15:20;;;;;;;57.37;16.90;;;2.90;99.90;;;;;;5114087;28;20173;-56
2022/01/13 07:17:47;;;;;;;76.30;17.77;;;2.90;99.90;;;;;;5113688;28;20213;-56
2022/01/13 07:20:13;;;;;;;32.87;14.90;;;3.00;99.90;;;;;;5113843;28;20197;-55
2022/01/13 07:22:39;;;;;;;32.43;14.60;;;3.00;99.90;;;;;;5113661;28;20184;-55
2022/01/13 07:25:09;;;;;;;32.57;15.00;;;3.00;99.90;;;;;;5113710;28;20177;-55
2022/01/13 07:27:35;;;;;;;123.70;19.93;;;2.90;99.90;;;;;;5113495;28;20201;-55
2022/01/13 07:30:01;;;;;;;165.03;22.13;;;2.80;99.90;;;;;;5113767;28;20621;-57
2022/01/13 07:32:27;;;;;;;36.90;14.63;;;2.70;99.90;;;;;;5113385;28;20179;-55
2022/01/13 07:34:54;;;;;;;69.77;16.17;;;2.50;99.90;;;;;;5113879;28;20215;-55
2022/01/13 07:37:24;;;;;;;44.57;16.13;;;2.70;99.90;;;;;;5113671;28;20672;-55
2022/01/13 07:39:50;;;;;;;64.77;16.53;;;2.80;99.90;;;;;;5112418;28;20274;-55
2022/01/13 07:42:16;;;;;;;28.93;14.10;;;2.60;99.90;;;;;;5113486;28;20176;-56
2022/01/13 07:44:42;;;;;;;91.13;16.40;;;2.60;99.90;;;;;;5112276;28;20222;-55
2022/01/13 07:47:08;;;;;;;62.73;15.80;;;2.70;99.90;;;;;;5113539;28;20216;-55
2022/01/13 07:49:35;;;;;;;31.40;13.03;;;2.80;99.90;;;;;;5113536;28;20537;-54
2022/01/13 07:52:02;;;;;;;62.27;16.27;;;2.80;99.90;;;;;;5113490;28;20176;-56
2022/01/13 07:54:30;;;;;;;100.07;18.03;;;2.80;99.90;;;;;;5112255;28;20184;-55
2022/01/13 07:56:56;;;;;;;92.13;18.20;;;2.90;99.90;;;;;;5113353;28;20594;-55
2022/01/13 07:59:27;;;;;;;48.23;13.80;;;2.70;99.90;;;;;;5111950;28;20536;-55
2022/01/13 08:01:54;;;;;;;56.70;15.23;;;2.80;99.90;;;;;;5113931;28;20253;-54
2022/01/13 08:04:19;;;;;;;32.50;12.93;;;2.80;99.90;;;;;;5117717;28;20184;-56
2022/01/13 08:06:45;;;;;;;92.07;16.87;;;2.90;99.90;;;;;;5117220;28;20177;-55
2022/01/13 08:09:10;;;;;;;51.10;14.53;;;3.00;99.90;;;;;;5117303;28;20184;-55
2022/01/13 08:11:36;;;;;;;46.47;14.47;;;3.10;99.90;;;;;;5117359;28;20696;-55
2022/01/13 08:14:02;;;;;;;64.27;15.77;;;3.10;99.90;;;;;;5117256;28;20179;-55
2022/01/13 08:16:32;;;;;;;53.67;14.50;;;3.10;99.90;;;;;;5116160;28;20555;-55
2022/01/13 08:21:42;;;;;;;54.43;13.93;;;3.00;99.90;;;;;;5119857;28;20173;-55
2022/01/13 08:24:08;;;;;;;63.23;16.30;;;2.90;99.90;;;;;;5116579;28;20176;-55
2022/01/13 08:26:34;;;;;;;49.33;15.10;;;2.90;99.90;;;;;;5116857;28;20258;-56
2022/01/13 08:28:59;;;;;;;57.30;15.50;;;3.00;99.90;;;;;;5115553;28;20681;-55
2022/01/13 08:31:25;;;;;;;29.87;13.87;;;2.90;99.90;;;;;;5116641;28;20313;-55
2022/01/13 08:33:51;;;;;;;40.60;15.03;;;2.90;99.90;;;;;;5115144;28;20188;-55
2022/01/13 08:36:17;;;;;;;56.53;16.20;;;3.00;99.90;;;;;;5116771;28;20287;-55
2022/01/13 08:38:42;;;;;;;55.43;13.57;;;2.90;99.90;;;;;;5115211;28;20241;-55
2022/01/13 08:41:08;;;;;;;81.20;15.57;;;2.90;99.90;;;;;;5115401;28;20188;-56
2022/01/13 08:43:34;;;;;;;51.70;13.03;;;2.90;99.90;;;;;;5116799;28;20181;-56
2022/01/13 08:46:01;;;;;;;62.90;16.63;;;2.90;99.90;;;;;;5098614;28;20219;-55
2022/01/13 08:48:27;;;;;;;43.73;14.63;;;2.80;99.90;;;;;;5115229;28;20248;-56
2022/01/13 08:50:53;;;;;;;60.40;15.70;;;2.90;99.90;;;;;;5116147;28;20235;-55
2022/01/13 08:53:19;;;;;;;79.10;16.30;;;3.00;99.90;;;;;;5116508;28;20176;-56
2022/01/13 08:55:45;;;;;;;48.67;14.20;;;3.10;99.90;;;;;;5116405;28;20571;-55
2022/01/13 08:58:11;;;;;;;41.73;13.27;;;3.20;99.90;;;;;;5116337;28;20176;-55
2022/01/13 09:00:37;;;;;;;49.03;13.93;;;3.10;99.90;;;;;;5116196;28;20176;-55
2022/01/13 09:03:07;;;;;;;52.27;15.13;;;3.00;99.90;;;;;;5116282;28;20178;-57
2022/01/13 09:05:33;;;;;;;31.53;14.20;;;3.10;99.90;;;;;;5116173;28;20546;-55
2022/01/13 09:08:00;;;;;;;41.13;14.83;;;3.10;99.90;;;;;;5116165;28;20207;-55
2022/01/13 09:10:25;;;;;;;30.53;15.23;;;3.10;99.90;;;;;;5115589;28;20609;-55
2022/01/13 09:12:51;;;;;;;34.03;14.27;;;3.20;99.90;;;;;;5115602;28;20184;-57
2022/01/13 09:15:31;;;;;;;32.73;14.93;;;3.20;99.90;;;;;;5116028;28;20187;-57
2022/01/13 09:17:59;;;;;;;55.80;17.80;;;3.20;99.90;;;;;;5116140;28;20345;-55
2022/01/13 09:20:25;;;;;;;63.07;17.90;;;3.10;99.90;;;;;;5115628;27;20180;-56
2022/01/13 09:22:51;;;;;;;102.30;19.90;;;3.10;99.90;;;;;;5116028;28;20233;-55
2022/01/13 09:25:17;;;;;;;56.57;18.53;;;3.10;99.90;;;;;;5115863;28;20191;-55
2022/01/13 09:27:42;;;;;;;62.37;17.63;;;3.10;99.90;;;;;;5115684;28;20299;-55
2022/01/13 09:30:13;;;;;;;37.57;16.10;;;3.20;99.90;;;;;;5115679;28;20175;-55
2022/01/13 09:32:39;;;;;;;40.38;15.55;;;3.40;99.90;;;;;;5115624;28;20173;-55
2022/01/13 09:35:07;;;;;;;30.93;15.83;;;3.40;99.90;;;;;;5115651;28;20179;-56
2022/01/13 09:37:34;;;;;;;62.63;18.37;;;3.40;99.90;;;;;;5115644;28;20176;-56
2022/01/13 09:40:00;;;;;;;40.30;16.33;;;3.30;99.90;;;;;;5115548;28;20533;-56
2022/01/13 09:42:27;;;;;;;34.83;17.33;;;3.30;99.90;;;;;;5114389;28;20186;-57
2022/01/13 09:44:57;;;;;;;38.33;17.13;;;3.50;99.90;;;;;;5115402;28;20177;-56
2022/01/13 09:47:24;;;;;;;26.23;16.03;;;3.50;99.90;;;;;;5115435;28;20216;-57
2022/01/13 09:49:50;;;;;;;29.67;16.70;;;3.70;99.90;;;;;;5115113;28;20573;-57
2022/01/13 09:52:16;;;;;;;37.57;17.70;;;3.70;99.90;;;;;;5115291;28;20184;-56
2022/01/13 09:54:42;;;;;;;54.50;17.58;;;3.80;99.90;;;;;;5115094;28;20177;-55
2022/01/13 09:57:08;;;;;;;34.60;16.73;;;3.70;99.90;;;;;;5113777;28;20232;-53
2022/01/13 09:59:34;;;;;;;41.47;17.10;;;3.70;99.90;;;;;;5114857;28;20536;-55
2022/01/13 10:01:59;;;;;;;37.83;17.90;;;3.70;99.90;;;;;;5114908;28;20232;-55
2022/01/13 10:04:53;;;;;;;35.90;17.23;;;3.70;99.90;;;;;;5115010;28;20172;-55
2022/01/13 10:07:41;;;;;;;88.37;20.37;;;3.80;99.90;;;;;;5115674;28;20211;-54
2022/01/13 10:10:22;;;;;;;38.10;17.45;;;3.80;99.90;;;;;;5115867;28;20164;-57
2022/01/13 10:12:58;;;;;;;52.10;18.87;;;3.70;99.90;;;;;;5114534;28;20610;-56
2022/01/13 10:18:08;;;;;;;39.30;20.00;;;3.70;99.90;;;;;;5115185;28;20245;-57
2022/01/13 10:20:34;;;;;;;44.63;20.42;;;3.70;99.90;;;;;;5114662;28;20210;-55
2022/01/13 10:23:11;;;;;;;41.03;20.83;;;3.80;99.90;;;;;;5114699;28;20180;-55
2022/01/13 10:25:41;;;;;;;51.63;21.52;;;3.90;99.90;;;;;;5113866;28;20179;-53
2022/01/13 10:28:12;;;;;;;40.38;19.65;;;3.80;99.90;;;;;;5114300;28;20239;-55
2022/01/13 10:30:39;;;;;;;35.33;18.80;;;3.90;99.90;;;;;;5114455;28;20568;-56
2022/01/13 10:33:28;;;;;;;40.63;20.00;;;4.00;99.90;;;;;;5114476;28;20177;-54
2022/01/13 10:36:05;;;;;;;32.30;19.40;;;4.10;99.90;;;;;;5114551;28;20671;-55
2022/01/13 10:38:56;;;;;;;38.00;19.13;;;4.20;99.90;;;;;;5114088;28;20640;-55
2022/01/13 10:41:37;;;;;;;41.95;18.65;;;4.20;99.90;;;;;;5114483;28;20183;-56
2022/01/13 10:44:17;;;;;;;30.92;19.10;;;4.30;99.90;;;;;;5114108;28;20524;-55
2022/01/13 10:47:04;;;;;;;33.67;19.58;;;4.30;99.90;;;;;;5114023;28;20235;-56
2022/01/13 10:49:41;;;;;;;27.45;17.45;;;4.30;99.90;;;;;;5114182;28;20172;-55
2022/01/13 10:52:24;;;;;;;37.35;17.65;;;4.30;99.90;;;;;;5114286;28;20253;-54
2022/01/13 10:54:58;;;;;;;33.35;17.98;;;4.40;99.90;;;;;;5114284;28;20188;-55
2022/01/13 10:57:25;;;;;;;34.50;17.98;;;4.30;99.90;;;;;;5113190;28;20247;-55
2022/01/13 10:59:51;;;;;;;33.67;17.60;;;4.50;99.90;;;;;;5114167;28;20683;-55
2022/01/13 11:02:19;;;;;;;25.58;17.98;;;4.30;99.90;;;;;;5114120;28;20192;-55
2022/01/13 11:04:46;;;;;;;40.22;17.98;;;4.40;99.90;;;;;;5113963;28;20187;-56
2022/01/13 11:07:17;;;;;;;30.13;17.98;;;4.40;99.90;;;;;;5113921;28;20177;-55
2022/01/13 11:10:03;;;;;;;24.90;17.33;;;4.40;99.90;;;;;;5112767;28;20279;-55
2022/01/13 11:12:36;;;;;;;29.63;17.20;;;4.40;99.90;;;;;;5113821;28;20165;-54
2022/01/13 11:15:05;;;;;;;45.22;18.70;;;4.40;99.90;;;;;;5113926;28;20516;-55
2022/01/13 11:17:33;;;;;;;34.00;19.20;;;4.40;99.90;;;;;;5112310;28;20553;-54
2022/01/13 11:19:59;;;;;;;28.55;18.52;;;4.50;99.90;;;;;;5113460;28;20222;-57
2022/01/13 11:22:25;;;;;;;30.58;18.90;;;4.50;99.90;;;;;;5113446;28;20258;-55
2022/01/13 11:24:51;;;;;;;29.05;18.33;;;4.40;99.90;;;;;;5113743;28;20184;-55
2022/01/13 11:27:19;;;;;;;51.45;20.08;;;4.40;99.90;;;;;;5112496;28;20715;-55
2022/01/13 11:29:48;;;;;;;31.15;18.38;;;4.50;99.90;;;;;;5112430;28;20187;-55
2022/01/13 11:32:15;;;;;;;28.30;19.70;;;4.40;99.90;;;;;;5113837;28;20168;-55
2022/01/13 11:34:42;;;;;;;38.13;19.55;;;4.50;99.90;;;;;;5113515;28;20274;-54
2022/01/13 11:37:08;;;;;;;36.40;20.50;;;4.60;99.90;;;;;;5116317;28;20183;-55
2022/01/13 11:39:38;;;;;;;30.45;20.23;;;4.60;99.90;;;;;;5117900;28;20177;-55
2022/01/13 11:42:10;;;;;;;40.08;23.00;;;4.50;99.90;;;;;;5117852;28;20242;-55
2022/01/13 11:44:37;;;;;;;45.15;22.95;;;4.60;99.90;;;;;;5117722;28;20266;-55
2022/01/13 11:47:15;;;;;;;38.30;21.40;;;4.60;99.90;;;;;;5117204;28;20210;-55
2022/01/13 11:52:27;;;;;;;45.20;22.25;;;4.60;99.90;;;;;;5116516;28;20649;-55
2022/01/13 11:54:53;;;;;;;42.50;22.30;;;4.50;99.90;;;;;;5119422;28;20213;-55
2022/01/13 11:57:22;;;;;;;38.70;20.92;;;4.50;99.90;;;;;;5117301;28;20192;-55
2022/01/13 11:59:56;;;;;;;50.00;20.67;;;4.50;99.90;;;;;;5117493;28;20181;-55
2022/01/13 12:02:30;;;;;;;36.05;20.02;;;4.50;99.90;;;;;;5117356;28;20176;-56
2022/01/13 12:05:03;;;;;;;39.45;21.55;;;4.60;99.90;;;;;;5117491;28;20248;-55
2022/01/13 12:07:43;;;;;;;45.72;21.52;;;4.70;99.90;;;;;;5116072;28;20534;-57
2022/01/13 12:10:28;;;;;;;38.58;20.50;;;4.70;99.90;;;;;;5117344;28;20204;-55
2022/01/13 12:12:54;;;;;;;40.38;21.17;;;4.70;99.90;;;;;;5116976;28;20310;-55
2022/01/13 12:15:25;;;;;;;30.27;19.42;;;4.60;99.90;;;;;;5117236;28;20172;-55
2022/01/13 12:17:58;;;;;;;60.92;21.67;;;4.60;99.90;;;;;;5117549;28;20257;-54
2022/01/13 12:20:58;;;;;;;34.60;23.02;;;4.70;99.90;;;;;;5117029;28;20178;-55
2022/01/13 12:23:43;;;;;;;51.97;22.70;;;4.60;99.90;;;;;;5116445;28;20649;-55
2022/01/13 12:26:31;;;;;;;42.00;22.30;;;4.70;99.90;;;;;;5111893;28;20193;-54
2022/01/13 12:29:10;;;;;;;48.78;21.80;;;4.60;99.90;;;;;;5116784;28;20244;-56
2022/01/13 12:31:48;;;;;;;51.97;22.17;;;4.60;99.90;;;;;;5116884;28;20184;-55
2022/01/13 12:34:44;;;;;;;39.50;23.00;;;4.50;99.90;;;;;;5116812;28;20176;-57
2022/01/13 12:37:13;;;;;;;40.08;23.02;;;4.60;99.90;;;;;;5115848;28;20641;-55
2022/01/13 12:39:58;;;;;;;55.40;31.45;;;4.70;99.90;;;;;;5116766;28;20199;-55
2022/01/13 12:42:52;;;;;;;51.25;28.15;;;4.80;99.90;;;;;;5116704;28;20203;-56
2022/01/13 12:45:33;;;;;;;41.40;26.08;;;4.80;99.90;;;;;;5112916;28;20296;-54
2022/01/13 12:48:08;;;;;;;47.72;25.58;;;4.90;99.90;;;;;;5114509;28;20699;-55
2022/01/13 12:50:45;;;;;;;39.92;27.23;;;4.80;99.90;;;;;;5115034;28;20172;-55
2022/01/13 12:53:16;;;;;;;41.15;24.75;;;4.90;99.90;;;;;;5115184;28;20621;-55
2022/01/13 12:55:45;;;;;;;45.95;23.70;;;4.90;99.90;;;;;;5116541;28;20177;-55
2022/01/13 12:58:12;;;;;;;40.70;25.45;;;4.90;99.90;;;;;;5116043;28;20208;-54
2022/01/13 13:00:38;;;;;;;36.33;24.48;;;4.90;99.90;;;;;;5116103;28;20191;-55
2022/01/13 13:03:06;;;;;;;54.20;27.85;;;5.00;99.90;;;;;;5116341;27;20220;-55
2022/01/13 13:05:38;;;;;;;45.33;24.55;;;5.00;99.90;;;;;;5116531;28;20221;-54
2022/01/13 13:08:06;;;;;;;38.47;23.92;;;4.80;99.90;;;;;;5114897;28;20566;-55
2022/01/13 13:10:32;;;;;;;46.45;22.83;;;4.90;99.90;;;;;;5116183;28;20238;-54
2022/01/13 13:12:58;;;;;;;37.88;25.80;;;5.00;99.90;;;;;;5116082;27;20626;-54